sensor_id;sensor_type;location;lat;lon;timestamp;P1;durP1;ratioP1;P2;durP2;ratioP2
4867;SDS011;2448;48.086;10.862;2022-08-03T00:02:12;1.60;;;1.50;;
4867;SDS011;2448;48.086;10.862;2022-08-03T00:04:37;2.43;;;1.40;;
4867;SDS011;2448;48.086;10.862;2022-08-03T00:07:02;2.00;;;1.70;;
4867;SDS011;2448;48.086;10.862;2022-08-03T00:09:28;1.83;;;1.73;;
4867;SDS011;2448;48.086;10.862;2022-08-03T00:11:55;4.63;;;2.07;;
4867;SDS011;2448;48.086;10.862;2022-08-03T00:14:20;1.73;;;1.20;;
4867;SDS011;2448;48.086;10.862;2022-08-03T00:16:46;1.20;;;1.20;;
4867;SDS011;2448;48.086;10.862;2022-08-03T00:19:11;1.43;;;1.33;;
4867;SDS011;2448;48.086;10.862;2022-08-03T00:21:36;1.93;;;1.20;;
4867;SDS011;2448;48.086;10.862;2022-08-03T00:24:02;1.77;;;1.27;;
4867;SDS011;2448;48.086;10.862;2022-08-03T00:26:27;6.43;;;1.67;;
4867;SDS011;2448;48.086;10.862;2022-08-03T00:28:53;1.73;;;1.63;;
4867;SDS011;2448;48.086;10.862;2022-08-03T00:31:18;1.80;;;1.70;;
4867;SDS011;2448;48.086;10.862;2022-08-03T00:33:44;1.97;;;1.87;;
4867;SDS011;2448;48.086;10.862;2022-08-03T00:36:09;1.87;;;1.77;;
4867;SDS011;2448;48.086;10.862;2022-08-03T00:38:34;2.03;;;1.40;;
4867;SDS011;2448;48.086;10.862;2022-08-03T00:41:00;1.23;;;1.23;;
4867;SDS011;2448;48.086;10.862;2022-08-03T00:43:25;1.23;;;1.23;;
4867;SDS011;2448;48.086;10.862;2022-08-03T00:45:51;2.80;;;1.60;;
4867;SDS011;2448;48.086;10.862;2022-08-03T00:48:17;1.77;;;1.67;;
4867;SDS011;2448;48.086;10.862;2022-08-03T00:50:42;1.60;;;1.50;;
4867;SDS011;2448;48.086;10.862;2022-08-03T00:53:09;1.87;;;1.70;;
4867;SDS011;2448;48.086;10.862;2022-08-03T00:55:36;4.33;;;1.80;;
4867;SDS011;2448;48.086;10.862;2022-08-03T00:58:02;2.10;;;2.00;;
4867;SDS011;2448;48.086;10.862;2022-08-03T01:00:31;4.23;;;2.27;;
4867;SDS011;2448;48.086;10.862;2022-08-03T01:02:57;1.80;;;1.70;;
4867;SDS011;2448;48.086;10.862;2022-08-03T01:05:22;2.23;;;2.10;;
4867;SDS011;2448;48.086;10.862;2022-08-03T01:11:35;1.53;;;1.43;;
4867;SDS011;2448;48.086;10.862;2022-08-03T01:13:28;2.13;;;1.90;;
4867;SDS011;2448;48.086;10.862;2022-08-03T01:15:58;5.33;;;1.90;;
4867;SDS011;2448;48.086;10.862;2022-08-03T01:20:51;1.97;;;1.87;;
4867;SDS011;2448;48.086;10.862;2022-08-03T01:23:34;2.50;;;1.60;;
4867;SDS011;2448;48.086;10.862;2022-08-03T01:31:17;1.70;;;1.60;;
4867;SDS011;2448;48.086;10.862;2022-08-03T01:33:47;3.23;;;1.90;;
4867;SDS011;2448;48.086;10.862;2022-08-03T01:36:15;1.80;;;1.70;;
4867;SDS011;2448;48.086;10.862;2022-08-03T01:38:43;2.03;;;1.93;;
4867;SDS011;2448;48.086;10.862;2022-08-03T01:41:11;1.97;;;1.83;;
4867;SDS011;2448;48.086;10.862;2022-08-03T01:43:37;1.93;;;1.83;;
4867;SDS011;2448;48.086;10.862;2022-08-03T01:46:03;1.80;;;1.70;;
4867;SDS011;2448;48.086;10.862;2022-08-03T01:48:29;1.40;;;1.40;;
4867;SDS011;2448;48.086;10.862;2022-08-03T01:50:56;2.30;;;1.90;;
4867;SDS011;2448;48.086;10.862;2022-08-03T01:53:22;5.30;;;2.07;;
4867;SDS011;2448;48.086;10.862;2022-08-03T01:55:48;1.90;;;1.80;;
4867;SDS011;2448;48.086;10.862;2022-08-03T01:58:16;2.40;;;2.20;;
4867;SDS011;2448;48.086;10.862;2022-08-03T02:00:43;2.00;;;1.90;;
4867;SDS011;2448;48.086;10.862;2022-08-03T02:03:08;5.13;;;2.07;;
4867;SDS011;2448;48.086;10.862;2022-08-03T02:05:36;2.20;;;2.00;;
4867;SDS011;2448;48.086;10.862;2022-08-03T02:08:03;4.30;;;1.90;;
4867;SDS011;2448;48.086;10.862;2022-08-03T02:10:29;2.43;;;2.23;;
4867;SDS011;2448;48.086;10.862;2022-08-03T02:12:55;15.23;;;2.10;;
4867;SDS011;2448;48.086;10.862;2022-08-03T02:15:21;2.03;;;1.93;;
4867;SDS011;2448;48.086;10.862;2022-08-03T02:17:47;4.40;;;2.20;;
4867;SDS011;2448;48.086;10.862;2022-08-03T02:20:14;6.93;;;2.60;;
4867;SDS011;2448;48.086;10.862;2022-08-03T02:22:40;2.03;;;1.87;;
4867;SDS011;2448;48.086;10.862;2022-08-03T02:25:09;3.67;;;2.37;;
4867;SDS011;2448;48.086;10.862;2022-08-03T02:27:37;2.10;;;2.00;;
4867;SDS011;2448;48.086;10.862;2022-08-03T02:30:06;2.00;;;1.87;;
4867;SDS011;2448;48.086;10.862;2022-08-03T02:32:36;1.97;;;1.87;;
4867;SDS011;2448;48.086;10.862;2022-08-03T02:35:03;2.63;;;2.40;;
4867;SDS011;2448;48.086;10.862;2022-08-03T02:37:31;2.13;;;2.03;;
4867;SDS011;2448;48.086;10.862;2022-08-03T02:40:01;1.70;;;1.60;;
4867;SDS011;2448;48.086;10.862;2022-08-03T02:42:28;2.10;;;1.83;;
4867;SDS011;2448;48.086;10.862;2022-08-03T02:44:54;3.80;;;2.07;;
4867;SDS011;2448;48.086;10.862;2022-08-03T02:47:20;2.30;;;2.10;;
4867;SDS011;2448;48.086;10.862;2022-08-03T02:49:46;1.93;;;1.67;;
4867;SDS011;2448;48.086;10.862;2022-08-03T02:52:12;2.73;;;2.10;;
4867;SDS011;2448;48.086;10.862;2022-08-03T02:54:38;2.13;;;1.93;;
4867;SDS011;2448;48.086;10.862;2022-08-03T02:57:05;2.97;;;2.20;;
4867;SDS011;2448;48.086;10.862;2022-08-03T02:59:31;2.97;;;1.70;;
4867;SDS011;2448;48.086;10.862;2022-08-03T03:01:57;2.10;;;2.00;;
4867;SDS011;2448;48.086;10.862;2022-08-03T03:04:24;1.83;;;1.73;;
4867;SDS011;2448;48.086;10.862;2022-08-03T03:06:50;2.40;;;2.20;;
4867;SDS011;2448;48.086;10.862;2022-08-03T03:09:16;4.50;;;2.17;;
4867;SDS011;2448;48.086;10.862;2022-08-03T03:11:42;18.87;;;2.00;;
4867;SDS011;2448;48.086;10.862;2022-08-03T03:14:08;2.47;;;2.27;;
4867;SDS011;2448;48.086;10.862;2022-08-03T03:16:35;1.90;;;1.80;;
4867;SDS011;2448;48.086;10.862;2022-08-03T03:19:00;2.07;;;1.97;;
4867;SDS011;2448;48.086;10.862;2022-08-03T03:21:26;2.13;;;1.97;;
4867;SDS011;2448;48.086;10.862;2022-08-03T03:23:51;1.90;;;1.80;;
4867;SDS011;2448;48.086;10.862;2022-08-03T03:26:17;2.20;;;2.00;;
4867;SDS011;2448;48.086;10.862;2022-08-03T03:28:43;1.97;;;1.77;;
4867;SDS011;2448;48.086;10.862;2022-08-03T03:31:09;3.83;;;2.73;;
4867;SDS011;2448;48.086;10.862;2022-08-03T03:33:35;2.07;;;1.97;;
4867;SDS011;2448;48.086;10.862;2022-08-03T03:36:03;1.97;;;1.87;;
4867;SDS011;2448;48.086;10.862;2022-08-03T03:38:31;3.20;;;2.37;;
4867;SDS011;2448;48.086;10.862;2022-08-03T03:40:59;16.10;;;2.30;;
4867;SDS011;2448;48.086;10.862;2022-08-03T03:43:26;2.80;;;2.50;;
4867;SDS011;2448;48.086;10.862;2022-08-03T03:45:51;3.27;;;2.10;;
4867;SDS011;2448;48.086;10.862;2022-08-03T03:48:18;3.67;;;2.63;;
4867;SDS011;2448;48.086;10.862;2022-08-03T03:50:43;2.63;;;2.43;;
4867;SDS011;2448;48.086;10.862;2022-08-03T03:53:10;14.73;;;2.27;;
4867;SDS011;2448;48.086;10.862;2022-08-03T03:55:36;1.70;;;1.60;;
4867;SDS011;2448;48.086;10.862;2022-08-03T03:58:02;1.93;;;1.83;;
4867;SDS011;2448;48.086;10.862;2022-08-03T04:00:28;2.73;;;2.53;;
4867;SDS011;2448;48.086;10.862;2022-08-03T04:02:53;2.97;;;2.77;;
4867;SDS011;2448;48.086;10.862;2022-08-03T04:05:19;2.00;;;1.90;;
4867;SDS011;2448;48.086;10.862;2022-08-03T04:08:14;2.17;;;2.00;;
4867;SDS011;2448;48.086;10.862;2022-08-03T04:11:06;5.60;;;2.00;;
4867;SDS011;2448;48.086;10.862;2022-08-03T04:13:34;2.23;;;2.10;;
4867;SDS011;2448;48.086;10.862;2022-08-03T04:16:01;2.40;;;2.20;;
4867;SDS011;2448;48.086;10.862;2022-08-03T04:18:28;2.53;;;2.33;;
4867;SDS011;2448;48.086;10.862;2022-08-03T04:20:54;4.73;;;3.17;;
4867;SDS011;2448;48.086;10.862;2022-08-03T04:23:21;2.70;;;2.43;;
4867;SDS011;2448;48.086;10.862;2022-08-03T04:25:48;3.77;;;2.67;;
4867;SDS011;2448;48.086;10.862;2022-08-03T04:28:15;2.47;;;2.00;;
4867;SDS011;2448;48.086;10.862;2022-08-03T04:30:41;2.57;;;2.40;;
4867;SDS011;2448;48.086;10.862;2022-08-03T04:33:11;2.07;;;1.97;;
4867;SDS011;2448;48.086;10.862;2022-08-03T04:35:37;1.80;;;1.70;;
4867;SDS011;2448;48.086;10.862;2022-08-03T04:38:05;2.30;;;2.10;;
4867;SDS011;2448;48.086;10.862;2022-08-03T04:40:34;2.57;;;2.20;;
4867;SDS011;2448;48.086;10.862;2022-08-03T04:43:00;2.43;;;2.23;;
4867;SDS011;2448;48.086;10.862;2022-08-03T04:45:27;2.73;;;2.20;;
4867;SDS011;2448;48.086;10.862;2022-08-03T04:47:52;2.30;;;2.10;;
4867;SDS011;2448;48.086;10.862;2022-08-03T04:50:18;2.97;;;2.00;;
4867;SDS011;2448;48.086;10.862;2022-08-03T04:53:02;2.70;;;2.30;;
4867;SDS011;2448;48.086;10.862;2022-08-03T04:55:28;2.43;;;2.00;;
4867;SDS011;2448;48.086;10.862;2022-08-03T04:57:54;6.93;;;2.43;;
4867;SDS011;2448;48.086;10.862;2022-08-03T05:00:20;3.07;;;2.03;;
4867;SDS011;2448;48.086;10.862;2022-08-03T05:02:45;1.80;;;1.70;;
4867;SDS011;2448;48.086;10.862;2022-08-03T05:05:10;9.20;;;2.30;;
4867;SDS011;2448;48.086;10.862;2022-08-03T05:07:36;2.30;;;2.10;;
4867;SDS011;2448;48.086;10.862;2022-08-03T05:10:05;2.67;;;2.47;;
4867;SDS011;2448;48.086;10.862;2022-08-03T05:12:31;3.43;;;3.00;;
4867;SDS011;2448;48.086;10.862;2022-08-03T05:14:56;2.37;;;2.17;;
4867;SDS011;2448;48.086;10.862;2022-08-03T05:17:22;2.40;;;2.20;;
4867;SDS011;2448;48.086;10.862;2022-08-03T05:19:47;8.20;;;2.97;;
4867;SDS011;2448;48.086;10.862;2022-08-03T05:22:12;2.33;;;2.13;;
4867;SDS011;2448;48.086;10.862;2022-08-03T05:24:38;3.87;;;2.10;;
4867;SDS011;2448;48.086;10.862;2022-08-03T05:27:03;3.00;;;2.57;;
4867;SDS011;2448;48.086;10.862;2022-08-03T05:29:29;6.00;;;1.73;;
4867;SDS011;2448;48.086;10.862;2022-08-03T05:31:54;2.03;;;1.90;;
4867;SDS011;2448;48.086;10.862;2022-08-03T05:34:19;8.70;;;2.70;;
4867;SDS011;2448;48.086;10.862;2022-08-03T05:36:45;2.07;;;1.97;;
4867;SDS011;2448;48.086;10.862;2022-08-03T05:39:10;2.73;;;2.53;;
4867;SDS011;2448;48.086;10.862;2022-08-03T05:41:35;5.37;;;3.27;;
4867;SDS011;2448;48.086;10.862;2022-08-03T05:44:01;2.00;;;1.90;;
4867;SDS011;2448;48.086;10.862;2022-08-03T05:46:26;4.17;;;2.80;;
4867;SDS011;2448;48.086;10.862;2022-08-03T05:48:52;5.07;;;3.10;;
4867;SDS011;2448;48.086;10.862;2022-08-03T05:51:17;3.43;;;2.43;;
4867;SDS011;2448;48.086;10.862;2022-08-03T05:53:43;4.10;;;2.40;;
4867;SDS011;2448;48.086;10.862;2022-08-03T05:56:08;2.07;;;1.80;;
4867;SDS011;2448;48.086;10.862;2022-08-03T05:58:34;4.43;;;2.10;;
4867;SDS011;2448;48.086;10.862;2022-08-03T06:00:59;2.43;;;2.30;;
4867;SDS011;2448;48.086;10.862;2022-08-03T06:03:25;2.33;;;2.23;;
4867;SDS011;2448;48.086;10.862;2022-08-03T06:05:50;2.50;;;2.30;;
4867;SDS011;2448;48.086;10.862;2022-08-03T06:08:17;2.33;;;2.23;;
4867;SDS011;2448;48.086;10.862;2022-08-03T06:10:42;2.27;;;2.17;;
4867;SDS011;2448;48.086;10.862;2022-08-03T06:13:08;4.00;;;2.10;;
4867;SDS011;2448;48.086;10.862;2022-08-03T06:15:33;2.40;;;2.20;;
4867;SDS011;2448;48.086;10.862;2022-08-03T06:17:59;2.47;;;2.27;;
4867;SDS011;2448;48.086;10.862;2022-08-03T06:20:24;11.47;;;2.60;;
4867;SDS011;2448;48.086;10.862;2022-08-03T06:22:50;2.97;;;2.03;;
4867;SDS011;2448;48.086;10.862;2022-08-03T06:25:15;3.63;;;2.60;;
4867;SDS011;2448;48.086;10.862;2022-08-03T06:27:41;2.00;;;1.90;;
4867;SDS011;2448;48.086;10.862;2022-08-03T06:30:08;2.40;;;2.30;;
4867;SDS011;2448;48.086;10.862;2022-08-03T06:32:35;2.70;;;2.13;;
4867;SDS011;2448;48.086;10.862;2022-08-03T06:35:00;5.23;;;2.43;;
4867;SDS011;2448;48.086;10.862;2022-08-03T06:37:26;2.17;;;1.97;;
4867;SDS011;2448;48.086;10.862;2022-08-03T06:39:51;2.10;;;2.00;;
4867;SDS011;2448;48.086;10.862;2022-08-03T06:42:17;1.80;;;1.70;;
4867;SDS011;2448;48.086;10.862;2022-08-03T06:44:42;1.93;;;1.73;;
4867;SDS011;2448;48.086;10.862;2022-08-03T06:47:08;2.10;;;1.90;;
4867;SDS011;2448;48.086;10.862;2022-08-03T06:49:33;1.80;;;1.70;;
4867;SDS011;2448;48.086;10.862;2022-08-03T06:51:59;2.30;;;2.00;;
4867;SDS011;2448;48.086;10.862;2022-08-03T06:54:24;1.97;;;1.77;;
4867;SDS011;2448;48.086;10.862;2022-08-03T06:56:50;3.40;;;1.60;;
4867;SDS011;2448;48.086;10.862;2022-08-03T06:59:15;1.47;;;1.37;;
4867;SDS011;2448;48.086;10.862;2022-08-03T07:01:41;1.70;;;1.60;;
4867;SDS011;2448;48.086;10.862;2022-08-03T07:04:06;1.97;;;1.87;;
4867;SDS011;2448;48.086;10.862;2022-08-03T07:06:31;2.47;;;2.27;;
4867;SDS011;2448;48.086;10.862;2022-08-03T07:08:57;4.23;;;3.50;;
4867;SDS011;2448;48.086;10.862;2022-08-03T07:11:24;6.50;;;3.03;;
4867;SDS011;2448;48.086;10.862;2022-08-03T07:13:49;4.30;;;3.10;;
4867;SDS011;2448;48.086;10.862;2022-08-03T07:16:14;2.27;;;2.07;;
4867;SDS011;2448;48.086;10.862;2022-08-03T07:18:40;2.93;;;2.33;;
4867;SDS011;2448;48.086;10.862;2022-08-03T07:21:05;3.27;;;2.50;;
4867;SDS011;2448;48.086;10.862;2022-08-03T07:23:33;2.10;;;1.90;;
4867;SDS011;2448;48.086;10.862;2022-08-03T07:25:58;2.60;;;1.63;;
4867;SDS011;2448;48.086;10.862;2022-08-03T07:28:24;1.70;;;1.60;;
4867;SDS011;2448;48.086;10.862;2022-08-03T07:30:49;1.40;;;1.40;;
4867;SDS011;2448;48.086;10.862;2022-08-03T07:33:14;1.10;;;1.10;;
4867;SDS011;2448;48.086;10.862;2022-08-03T07:35:40;1.40;;;1.30;;
4867;SDS011;2448;48.086;10.862;2022-08-03T07:38:05;1.27;;;1.27;;
4867;SDS011;2448;48.086;10.862;2022-08-03T07:40:31;1.23;;;1.13;;
4867;SDS011;2448;48.086;10.862;2022-08-03T07:42:56;1.07;;;1.07;;
4867;SDS011;2448;48.086;10.862;2022-08-03T07:45:22;1.13;;;1.00;;
4867;SDS011;2448;48.086;10.862;2022-08-03T07:47:48;1.20;;;1.20;;
4867;SDS011;2448;48.086;10.862;2022-08-03T07:50:13;1.10;;;1.10;;
4867;SDS011;2448;48.086;10.862;2022-08-03T07:52:39;1.17;;;1.07;;
4867;SDS011;2448;48.086;10.862;2022-08-03T07:55:14;1.63;;;1.37;;
4867;SDS011;2448;48.086;10.862;2022-08-03T07:57:39;1.20;;;1.20;;
4867;SDS011;2448;48.086;10.862;2022-08-03T08:00:05;1.10;;;1.00;;
4867;SDS011;2448;48.086;10.862;2022-08-03T08:02:39;1.50;;;1.40;;
4867;SDS011;2448;48.086;10.862;2022-08-03T08:05:05;0.97;;;0.97;;
4867;SDS011;2448;48.086;10.862;2022-08-03T08:07:30;0.90;;;0.90;;
4867;SDS011;2448;48.086;10.862;2022-08-03T08:09:55;0.80;;;0.80;;
4867;SDS011;2448;48.086;10.862;2022-08-03T08:12:21;0.70;;;0.70;;
4867;SDS011;2448;48.086;10.862;2022-08-03T08:14:46;0.80;;;0.80;;
4867;SDS011;2448;48.086;10.862;2022-08-03T08:17:12;1.02;;;0.77;;
4867;SDS011;2448;48.086;10.862;2022-08-03T08:19:38;0.93;;;0.93;;
4867;SDS011;2448;48.086;10.862;2022-08-03T08:22:03;0.80;;;0.80;;
4867;SDS011;2448;48.086;10.862;2022-08-03T08:24:28;0.75;;;0.75;;
4867;SDS011;2448;48.086;10.862;2022-08-03T08:26:58;0.70;;;0.70;;
4867;SDS011;2448;48.086;10.862;2022-08-03T08:29:24;0.80;;;0.80;;
4867;SDS011;2448;48.086;10.862;2022-08-03T08:31:49;0.77;;;0.77;;
4867;SDS011;2448;48.086;10.862;2022-08-03T08:34:15;0.65;;;0.65;;
4867;SDS011;2448;48.086;10.862;2022-08-03T08:36:40;0.85;;;0.85;;
4867;SDS011;2448;48.086;10.862;2022-08-03T08:39:06;0.60;;;0.60;;
4867;SDS011;2448;48.086;10.862;2022-08-03T08:41:31;4.35;;;0.70;;
4867;SDS011;2448;48.086;10.862;2022-08-03T08:43:59;0.73;;;0.73;;
4867;SDS011;2448;48.086;10.862;2022-08-03T08:46:24;0.80;;;0.80;;
4867;SDS011;2448;48.086;10.862;2022-08-03T08:48:51;0.63;;;0.63;;
4867;SDS011;2448;48.086;10.862;2022-08-03T08:51:18;0.50;;;0.50;;
4867;SDS011;2448;48.086;10.862;2022-08-03T08:53:44;1.05;;;1.05;;
4867;SDS011;2448;48.086;10.862;2022-08-03T08:56:12;0.70;;;0.70;;
4867;SDS011;2448;48.086;10.862;2022-08-03T08:58:41;0.60;;;0.60;;
4867;SDS011;2448;48.086;10.862;2022-08-03T09:01:08;2.80;;;0.80;;
4867;SDS011;2448;48.086;10.862;2022-08-03T09:03:34;0.63;;;0.63;;
4867;SDS011;2448;48.086;10.862;2022-08-03T09:06:01;1.00;;;0.82;;
4867;SDS011;2448;48.086;10.862;2022-08-03T09:08:28;0.70;;;0.70;;
4867;SDS011;2448;48.086;10.862;2022-08-03T09:10:54;4.35;;;0.80;;
4867;SDS011;2448;48.086;10.862;2022-08-03T09:13:19;0.60;;;0.60;;
4867;SDS011;2448;48.086;10.862;2022-08-03T09:15:45;0.60;;;0.60;;
4867;SDS011;2448;48.086;10.862;2022-08-03T09:18:10;1.25;;;0.80;;
4867;SDS011;2448;48.086;10.862;2022-08-03T09:20:36;0.80;;;0.80;;
4867;SDS011;2448;48.086;10.862;2022-08-03T09:23:06;0.98;;;0.50;;
4867;SDS011;2448;48.086;10.862;2022-08-03T09:25:39;1.00;;;0.80;;
4867;SDS011;2448;48.086;10.862;2022-08-03T09:28:06;0.70;;;0.70;;
4867;SDS011;2448;48.086;10.862;2022-08-03T09:30:32;2.15;;;0.70;;
4867;SDS011;2448;48.086;10.862;2022-08-03T09:33:01;5.47;;;0.90;;
4867;SDS011;2448;48.086;10.862;2022-08-03T09:35:27;0.70;;;0.70;;
4867;SDS011;2448;48.086;10.862;2022-08-03T09:38:09;0.60;;;0.60;;
4867;SDS011;2448;48.086;10.862;2022-08-03T09:40:36;0.82;;;0.82;;
4867;SDS011;2448;48.086;10.862;2022-08-03T09:43:01;2.55;;;0.80;;
4867;SDS011;2448;48.086;10.862;2022-08-03T09:45:26;0.85;;;0.85;;
4867;SDS011;2448;48.086;10.862;2022-08-03T09:47:52;0.60;;;0.60;;
4867;SDS011;2448;48.086;10.862;2022-08-03T09:50:17;1.58;;;0.90;;
4867;SDS011;2448;48.086;10.862;2022-08-03T09:52:43;0.90;;;0.90;;
4867;SDS011;2448;48.086;10.862;2022-08-03T09:55:11;1.02;;;0.65;;
4867;SDS011;2448;48.086;10.862;2022-08-03T09:57:37;1.00;;;1.00;;
4867;SDS011;2448;48.086;10.862;2022-08-03T10:00:06;0.90;;;0.90;;
4867;SDS011;2448;48.086;10.862;2022-08-03T10:02:40;0.70;;;0.70;;
4867;SDS011;2448;48.086;10.862;2022-08-03T10:05:06;0.70;;;0.70;;
4867;SDS011;2448;48.086;10.862;2022-08-03T10:07:42;0.88;;;0.88;;
4867;SDS011;2448;48.086;10.862;2022-08-03T10:10:08;5.60;;;0.95;;
4867;SDS011;2448;48.086;10.862;2022-08-03T10:12:34;0.82;;;0.82;;
4867;SDS011;2448;48.086;10.862;2022-08-03T10:15:00;2.58;;;0.75;;
4867;SDS011;2448;48.086;10.862;2022-08-03T10:17:26;0.80;;;0.80;;
4867;SDS011;2448;48.086;10.862;2022-08-03T10:19:52;0.82;;;0.82;;
4867;SDS011;2448;48.086;10.862;2022-08-03T10:22:18;0.80;;;0.80;;
4867;SDS011;2448;48.086;10.862;2022-08-03T10:25:27;0.57;;;0.57;;
4867;SDS011;2448;48.086;10.862;2022-08-03T10:27:37;0.63;;;0.63;;
4867;SDS011;2448;48.086;10.862;2022-08-03T10:30:04;0.60;;;0.60;;
4867;SDS011;2448;48.086;10.862;2022-08-03T10:32:30;0.73;;;0.73;;
4867;SDS011;2448;48.086;10.862;2022-08-03T10:35:00;1.05;;;0.90;;
4867;SDS011;2448;48.086;10.862;2022-08-03T10:37:27;0.77;;;0.77;;
4867;SDS011;2448;48.086;10.862;2022-08-03T10:39:54;0.68;;;0.60;;
4867;SDS011;2448;48.086;10.862;2022-08-03T10:42:22;0.60;;;0.60;;
4867;SDS011;2448;48.086;10.862;2022-08-03T10:44:47;0.60;;;0.60;;
4867;SDS011;2448;48.086;10.862;2022-08-03T10:47:14;0.70;;;0.70;;
4867;SDS011;2448;48.086;10.862;2022-08-03T10:49:40;0.88;;;0.88;;
4867;SDS011;2448;48.086;10.862;2022-08-03T10:52:05;0.93;;;0.93;;
4867;SDS011;2448;48.086;10.862;2022-08-03T10:56:59;0.80;;;0.80;;
4867;SDS011;2448;48.086;10.862;2022-08-03T11:02:15;0.80;;;0.80;;
4867;SDS011;2448;48.086;10.862;2022-08-03T11:04:40;0.63;;;0.63;;
4867;SDS011;2448;48.086;10.862;2022-08-03T11:09:42;0.70;;;0.70;;
4867;SDS011;2448;48.086;10.862;2022-08-03T11:12:19;0.70;;;0.70;;
4867;SDS011;2448;48.086;10.862;2022-08-03T11:14:45;0.70;;;0.70;;
4867;SDS011;2448;48.086;10.862;2022-08-03T11:17:12;0.50;;;0.50;;
4867;SDS011;2448;48.086;10.862;2022-08-03T11:19:44;1.17;;;1.10;;
4867;SDS011;2448;48.086;10.862;2022-08-03T11:22:10;0.70;;;0.70;;
4867;SDS011;2448;48.086;10.862;2022-08-03T11:35:05;0.68;;;0.68;;
4867;SDS011;2448;48.086;10.862;2022-08-03T11:37:31;0.50;;;0.50;;
4867;SDS011;2448;48.086;10.862;2022-08-03T11:39:56;0.60;;;0.60;;
4867;SDS011;2448;48.086;10.862;2022-08-03T11:44:58;0.80;;;0.63;;
4867;SDS011;2448;48.086;10.862;2022-08-03T11:47:24;0.70;;;0.70;;
4867;SDS011;2448;48.086;10.862;2022-08-03T11:49:53;0.80;;;0.80;;
4867;SDS011;2448;48.086;10.862;2022-08-03T11:52:18;0.60;;;0.60;;
4867;SDS011;2448;48.086;10.862;2022-08-03T11:54:44;0.60;;;0.60;;
4867;SDS011;2448;48.086;10.862;2022-08-03T11:57:09;0.70;;;0.70;;
4867;SDS011;2448;48.086;10.862;2022-08-03T11:59:36;0.70;;;0.70;;
4867;SDS011;2448;48.086;10.862;2022-08-03T12:02:05;0.77;;;0.77;;
4867;SDS011;2448;48.086;10.862;2022-08-03T12:04:31;0.70;;;0.70;;
4867;SDS011;2448;48.086;10.862;2022-08-03T12:06:57;0.68;;;0.68;;
4867;SDS011;2448;48.086;10.862;2022-08-03T12:09:22;0.70;;;0.70;;
4867;SDS011;2448;48.086;10.862;2022-08-03T12:11:48;0.88;;;0.88;;
4867;SDS011;2448;48.086;10.862;2022-08-03T12:14:17;0.60;;;0.60;;
4867;SDS011;2448;48.086;10.862;2022-08-03T12:16:46;0.80;;;0.80;;
4867;SDS011;2448;48.086;10.862;2022-08-03T12:19:13;3.22;;;0.90;;
4867;SDS011;2448;48.086;10.862;2022-08-03T12:21:45;1.35;;;0.75;;
4867;SDS011;2448;48.086;10.862;2022-08-03T12:24:10;0.75;;;0.75;;
4867;SDS011;2448;48.086;10.862;2022-08-03T12:26:43;0.65;;;0.65;;
4867;SDS011;2448;48.086;10.862;2022-08-03T12:29:21;0.70;;;0.70;;
4867;SDS011;2448;48.086;10.862;2022-08-03T12:31:49;0.82;;;0.82;;
4867;SDS011;2448;48.086;10.862;2022-08-03T12:34:15;0.75;;;0.75;;
4867;SDS011;2448;48.086;10.862;2022-08-03T12:36:49;0.60;;;0.60;;
4867;SDS011;2448;48.086;10.862;2022-08-03T12:39:15;0.70;;;0.70;;
4867;SDS011;2448;48.086;10.862;2022-08-03T12:41:40;0.73;;;0.73;;
4867;SDS011;2448;48.086;10.862;2022-08-03T12:44:07;0.80;;;0.80;;
4867;SDS011;2448;48.086;10.862;2022-08-03T12:46:33;2.47;;;0.90;;
4867;SDS011;2448;48.086;10.862;2022-08-03T12:51:28;0.80;;;0.80;;
4867;SDS011;2448;48.086;10.862;2022-08-03T12:53:54;0.70;;;0.70;;
4867;SDS011;2448;48.086;10.862;2022-08-03T12:56:19;0.60;;;0.60;;
4867;SDS011;2448;48.086;10.862;2022-08-03T12:58:45;0.70;;;0.70;;
4867;SDS011;2448;48.086;10.862;2022-08-03T13:01:12;0.70;;;0.70;;
4867;SDS011;2448;48.086;10.862;2022-08-03T13:03:47;6.45;;;0.80;;
4867;SDS011;2448;48.086;10.862;2022-08-03T13:06:13;0.73;;;0.73;;
4867;SDS011;2448;48.086;10.862;2022-08-03T13:08:38;0.70;;;0.70;;
4867;SDS011;2448;48.086;10.862;2022-08-03T13:11:37;0.80;;;0.80;;
4867;SDS011;2448;48.086;10.862;2022-08-03T13:13:56;0.60;;;0.60;;
4867;SDS011;2448;48.086;10.862;2022-08-03T13:16:21;0.75;;;0.75;;
4867;SDS011;2448;48.086;10.862;2022-08-03T13:18:47;0.60;;;0.60;;
4867;SDS011;2448;48.086;10.862;2022-08-03T13:21:14;0.80;;;0.80;;
4867;SDS011;2448;48.086;10.862;2022-08-03T13:23:39;0.73;;;0.73;;
4867;SDS011;2448;48.086;10.862;2022-08-03T13:26:05;0.70;;;0.70;;
4867;SDS011;2448;48.086;10.862;2022-08-03T13:28:30;0.80;;;0.80;;
4867;SDS011;2448;48.086;10.862;2022-08-03T13:30:56;0.60;;;0.60;;
4867;SDS011;2448;48.086;10.862;2022-08-03T13:33:21;1.00;;;0.90;;
4867;SDS011;2448;48.086;10.862;2022-08-03T13:35:47;1.33;;;0.70;;
4867;SDS011;2448;48.086;10.862;2022-08-03T13:38:12;0.60;;;0.60;;
4867;SDS011;2448;48.086;10.862;2022-08-03T13:40:37;0.60;;;0.60;;
4867;SDS011;2448;48.086;10.862;2022-08-03T13:43:03;0.80;;;0.80;;
4867;SDS011;2448;48.086;10.862;2022-08-03T13:45:28;2.03;;;0.80;;
4867;SDS011;2448;48.086;10.862;2022-08-03T13:47:54;1.25;;;1.10;;
4867;SDS011;2448;48.086;10.862;2022-08-03T13:50:19;0.60;;;0.60;;
4867;SDS011;2448;48.086;10.862;2022-08-03T13:52:44;0.60;;;0.60;;
4867;SDS011;2448;48.086;10.862;2022-08-03T13:55:12;1.58;;;0.75;;
4867;SDS011;2448;48.086;10.862;2022-08-03T13:57:38;0.80;;;0.80;;
4867;SDS011;2448;48.086;10.862;2022-08-03T14:00:04;1.65;;;0.63;;
4867;SDS011;2448;48.086;10.862;2022-08-03T14:02:29;0.75;;;0.75;;
4867;SDS011;2448;48.086;10.862;2022-08-03T14:04:55;1.02;;;0.85;;
4867;SDS011;2448;48.086;10.862;2022-08-03T14:07:20;0.75;;;0.75;;
4867;SDS011;2448;48.086;10.862;2022-08-03T14:09:46;0.63;;;0.63;;
4867;SDS011;2448;48.086;10.862;2022-08-03T14:12:11;3.15;;;0.65;;
4867;SDS011;2448;48.086;10.862;2022-08-03T14:14:37;0.60;;;0.60;;
4867;SDS011;2448;48.086;10.862;2022-08-03T14:17:02;2.25;;;0.90;;
4867;SDS011;2448;48.086;10.862;2022-08-03T14:19:27;0.70;;;0.70;;
4867;SDS011;2448;48.086;10.862;2022-08-03T14:21:53;0.98;;;0.98;;
4867;SDS011;2448;48.086;10.862;2022-08-03T14:24:18;0.65;;;0.65;;
4867;SDS011;2448;48.086;10.862;2022-08-03T14:26:44;1.00;;;0.88;;
4867;SDS011;2448;48.086;10.862;2022-08-03T14:29:09;0.73;;;0.73;;
4867;SDS011;2448;48.086;10.862;2022-08-03T14:31:35;0.70;;;0.70;;
4867;SDS011;2448;48.086;10.862;2022-08-03T14:34:00;0.70;;;0.70;;
4867;SDS011;2448;48.086;10.862;2022-08-03T14:36:26;0.80;;;0.80;;
4867;SDS011;2448;48.086;10.862;2022-08-03T14:38:51;0.60;;;0.60;;
4867;SDS011;2448;48.086;10.862;2022-08-03T14:41:16;0.70;;;0.70;;
4867;SDS011;2448;48.086;10.862;2022-08-03T14:43:42;1.65;;;0.77;;
4867;SDS011;2448;48.086;10.862;2022-08-03T14:46:07;0.75;;;0.60;;
4867;SDS011;2448;48.086;10.862;2022-08-03T14:48:33;0.83;;;0.80;;
4867;SDS011;2448;48.086;10.862;2022-08-03T14:50:58;0.73;;;0.73;;
4867;SDS011;2448;48.086;10.862;2022-08-03T14:53:23;0.82;;;0.82;;
4867;SDS011;2448;48.086;10.862;2022-08-03T14:55:49;0.77;;;0.77;;
4867;SDS011;2448;48.086;10.862;2022-08-03T14:58:15;0.80;;;0.80;;
4867;SDS011;2448;48.086;10.862;2022-08-03T15:00:40;0.60;;;0.60;;
4867;SDS011;2448;48.086;10.862;2022-08-03T15:03:06;0.83;;;0.83;;
4867;SDS011;2448;48.086;10.862;2022-08-03T15:05:31;0.60;;;0.60;;
4867;SDS011;2448;48.086;10.862;2022-08-03T15:07:56;1.08;;;1.08;;
4867;SDS011;2448;48.086;10.862;2022-08-03T15:10:22;0.97;;;0.97;;
4867;SDS011;2448;48.086;10.862;2022-08-03T15:12:47;0.77;;;0.77;;
4867;SDS011;2448;48.086;10.862;2022-08-03T15:15:13;1.50;;;1.40;;
4867;SDS011;2448;48.086;10.862;2022-08-03T15:17:38;0.83;;;0.80;;
4867;SDS011;2448;48.086;10.862;2022-08-03T15:20:04;0.93;;;0.93;;
4867;SDS011;2448;48.086;10.862;2022-08-03T15:22:30;0.73;;;0.73;;
4867;SDS011;2448;48.086;10.862;2022-08-03T15:24:55;0.70;;;0.70;;
4867;SDS011;2448;48.086;10.862;2022-08-03T15:27:21;0.80;;;0.80;;
4867;SDS011;2448;48.086;10.862;2022-08-03T15:29:46;0.80;;;0.67;;
4867;SDS011;2448;48.086;10.862;2022-08-03T15:32:12;0.83;;;0.73;;